createdAt,value
2018-06-27T00:02:16.844Z,11.63
2018-06-27T00:04:46.832Z,15.13
2018-06-27T00:07:16.747Z,12.43
2018-06-27T00:09:47.321Z,11.53
2018-06-27T00:12:17.279Z,12.43
2018-06-27T00:14:47.356Z,12.50
2018-06-27T00:17:17.239Z,16.80
2018-06-27T00:19:47.278Z,14.40
2018-06-27T00:22:17.412Z,13.23
2018-06-27T00:24:47.393Z,14.53
2018-06-27T00:27:17.484Z,11.77
2018-06-27T00:29:47.535Z,11.60
2018-06-27T00:32:17.733Z,10.47
2018-06-27T00:34:48.167Z,9.30
2018-06-27T00:37:18.242Z,9.43
2018-06-27T00:39:48.553Z,9.57
2018-06-27T00:42:18.660Z,7.60
2018-06-27T00:44:48.840Z,9.33
2018-06-27T00:47:18.998Z,8.33
2018-06-27T00:49:49.013Z,8.27
2018-06-27T00:52:19.449Z,9.33
2018-06-27T00:54:49.423Z,9.57
2018-06-27T00:57:19.442Z,10.33
2018-06-27T00:59:49.396Z,10.10
2018-06-27T01:02:19.475Z,9.73
2018-06-27T01:04:49.870Z,9.00
2018-06-27T01:07:21.522Z,7.57
2018-06-27T01:09:52.016Z,6.60
2018-06-27T01:12:22.308Z,7.33
2018-06-27T01:14:52.224Z,10.97
2018-06-27T01:17:22.269Z,14.23
2018-06-27T01:19:52.600Z,16.07
2018-06-27T01:22:22.714Z,15.17
2018-06-27T01:24:52.990Z,18.43
2018-06-27T01:27:23.423Z,18.67
2018-06-27T01:29:53.407Z,17.83
2018-06-27T01:32:23.851Z,19.30
2018-06-27T01:34:54.392Z,14.57
2018-06-27T01:37:24.392Z,18.10
2018-06-27T01:39:54.662Z,15.83
2018-06-27T01:42:24.749Z,15.23
2018-06-27T01:44:54.947Z,12.60
2018-06-27T01:47:24.903Z,11.50
2018-06-27T01:49:55.044Z,15.90
2018-06-27T01:52:25.536Z,12.53
2018-06-27T01:54:56.093Z,12.93
2018-06-27T01:57:26.092Z,14.30
2018-06-27T01:59:56.083Z,17.10
2018-06-27T02:02:26.036Z,15.03
2018-06-27T02:04:56.300Z,14.70
2018-06-27T02:07:26.598Z,15.27
2018-06-27T02:09:56.819Z,13.17
2018-06-27T02:12:27.023Z,11.40
2018-06-27T02:14:57.207Z,8.63
2018-06-27T02:17:27.703Z,8.90
2018-06-27T02:19:57.876Z,10.53
2018-06-27T02:22:27.862Z,9.07
2018-06-27T02:24:58.111Z,8.23
2018-06-27T02:27:28.733Z,7.70
2018-06-27T02:29:58.983Z,7.93
2018-06-27T02:32:29.017Z,7.50
2018-06-27T02:34:59.356Z,8.03
2018-06-27T02:37:29.894Z,9.10
2018-06-27T02:40:00.155Z,7.83
2018-06-27T02:42:30.402Z,8.30
2018-06-27T02:45:00.332Z,9.17
2018-06-27T02:47:30.882Z,9.07
2018-06-27T02:50:00.788Z,9.80
2018-06-27T02:52:30.691Z,11.70
2018-06-27T02:55:01.168Z,9.80
2018-06-27T02:57:31.422Z,9.50
2018-06-27T03:00:01.423Z,10.30
2018-06-27T03:02:31.864Z,8.43
2018-06-27T03:05:02.125Z,9.40
2018-06-27T03:07:32.316Z,8.23
2018-06-27T03:10:02.572Z,8.43
2018-06-27T03:12:32.927Z,8.50
2018-06-27T03:15:03.196Z,7.87
2018-06-27T03:17:33.353Z,9.17
2018-06-27T03:20:03.387Z,7.80
2018-06-27T03:22:33.456Z,7.27
2018-06-27T03:25:03.495Z,8.20
2018-06-27T03:27:33.563Z,7.80
2018-06-27T03:30:03.535Z,9.43
2018-06-27T03:32:33.588Z,6.77
2018-06-27T03:35:04.297Z,7.83
2018-06-27T03:37:34.453Z,5.67
2018-06-27T03:40:04.300Z,6.37
2018-06-27T03:42:34.323Z,5.60
2018-06-27T03:45:04.192Z,5.47
2018-06-27T03:47:34.143Z,5.87
2018-06-27T03:50:04.112Z,7.07
2018-06-27T03:52:33.968Z,8.43
2018-06-27T03:55:04.050Z,7.73
2018-06-27T03:57:34.052Z,9.73
2018-06-27T04:00:04.180Z,6.27
2018-06-27T04:02:34.201Z,9.77
2018-06-27T04:05:04.400Z,6.03
2018-06-27T04:07:34.601Z,7.67
2018-06-27T04:10:04.855Z,6.37
2018-06-27T04:12:34.854Z,7.20
2018-06-27T04:15:05.245Z,10.13
2018-06-27T04:17:35.143Z,6.17
2018-06-27T04:20:05.288Z,4.83
2018-06-27T04:22:36.251Z,8.57
2018-06-27T04:25:06.339Z,5.20
2018-06-27T04:27:36.267Z,4.83
2018-06-27T04:30:06.313Z,4.77
2018-06-27T04:32:36.512Z,9.40
2018-06-27T04:35:06.683Z,4.37
2018-06-27T04:37:36.568Z,4.13
2018-06-27T04:40:06.654Z,5.53
2018-06-27T04:42:37.402Z,6.60
2018-06-27T04:45:07.699Z,4.53
2018-06-27T04:47:37.606Z,5.37
2018-06-27T04:50:07.948Z,5.63
2018-06-27T04:52:38.981Z,6.57
2018-06-27T04:55:09.332Z,7.33
2018-06-27T04:57:39.246Z,8.10
2018-06-27T05:00:10.110Z,5.17
2018-06-27T05:02:40.141Z,5.10
2018-06-27T05:05:10.599Z,5.47
2018-06-27T05:07:40.821Z,7.40
2018-06-27T05:10:11.130Z,5.17
2018-06-27T05:12:41.927Z,6.60
2018-06-27T05:15:12.260Z,6.90
2018-06-27T05:17:42.480Z,9.47
2018-06-27T05:20:12.728Z,9.10
2018-06-27T05:22:43.022Z,8.17
2018-06-27T05:25:13.434Z,6.37
2018-06-27T05:27:43.527Z,10.33
2018-06-27T05:30:13.550Z,7.83
2018-06-27T05:32:43.432Z,7.73
2018-06-27T05:35:13.643Z,8.63
2018-06-27T05:37:43.632Z,9.87
2018-06-27T05:40:13.828Z,6.33
2018-06-27T05:42:43.945Z,7.60
2018-06-27T05:45:13.978Z,7.67
2018-06-27T05:47:44.089Z,6.43
2018-06-27T05:50:14.370Z,7.57
2018-06-27T05:52:44.442Z,6.63
2018-06-27T05:55:14.368Z,8.23
2018-06-27T05:57:44.629Z,9.90
2018-06-27T06:00:15.022Z,11.30
2018-06-27T06:02:45.008Z,11.13
2018-06-27T06:05:15.356Z,8.63
2018-06-27T06:07:45.635Z,10.73
2018-06-27T06:10:15.973Z,13.33
2018-06-27T06:12:46.446Z,12.10
2018-06-27T06:15:16.727Z,8.10
2018-06-27T06:17:46.974Z,11.13
2018-06-27T06:20:18.162Z,8.23
2018-06-27T06:22:48.240Z,10.20
2018-06-27T06:25:18.314Z,9.07
2018-06-27T06:27:48.356Z,9.67
2018-06-27T06:30:18.367Z,8.13
2018-06-27T06:32:48.334Z,8.00
2018-06-27T06:35:18.496Z,8.13
2018-06-27T06:37:48.709Z,6.37
2018-06-27T06:40:18.793Z,8.93
2018-06-27T06:42:49.080Z,6.53
2018-06-27T06:45:18.975Z,8.43
2018-06-27T06:47:49.215Z,7.27
2018-06-27T06:50:19.705Z,6.63
2018-06-27T06:52:49.642Z,8.47
2018-06-27T06:55:19.783Z,10.33
2018-06-27T06:57:49.923Z,13.20
2018-06-27T07:00:20.097Z,20.93
2018-06-27T07:02:50.186Z,11.50
2018-06-27T07:05:20.574Z,15.20
2018-06-27T07:07:50.571Z,10.40
2018-06-27T07:10:21.095Z,16.20
2018-06-27T07:12:51.169Z,10.60
2018-06-27T07:15:21.431Z,8.00
2018-06-27T07:17:51.375Z,9.73
2018-06-27T07:20:21.627Z,8.37
2018-06-27T07:22:52.856Z,8.10
2018-06-27T07:25:22.816Z,10.87
2018-06-27T07:27:52.877Z,7.93
2018-06-27T07:30:22.850Z,8.50
2018-06-27T07:32:53.290Z,7.27
2018-06-27T07:35:23.765Z,10.17
2018-06-27T07:37:53.687Z,9.17
2018-06-27T07:40:23.862Z,9.57
2018-06-27T07:42:54.630Z,10.43
2018-06-27T07:45:24.859Z,12.73
2018-06-27T07:47:55.597Z,8.53
2018-06-27T07:50:26.125Z,9.90
2018-06-27T07:52:56.215Z,8.07
2018-06-27T07:55:26.470Z,11.27
2018-06-27T07:57:56.883Z,8.57
2018-06-27T08:00:27.217Z,8.10
2018-06-27T08:02:57.068Z,9.40
2018-06-27T08:05:26.995Z,7.17
2018-06-27T08:07:56.886Z,6.80
2018-06-27T08:10:26.822Z,5.93
2018-06-27T08:12:56.860Z,7.33
2018-06-27T08:15:26.978Z,9.00
2018-06-27T08:17:57.199Z,7.80
2018-06-27T08:20:27.588Z,10.20
2018-06-27T08:22:57.544Z,11.00
2018-06-27T08:28:25.094Z,7.30
2018-06-27T08:30:55.162Z,7.80
2018-06-27T08:33:24.997Z,8.80
2018-06-27T08:35:55.536Z,9.30
2018-06-27T08:38:25.738Z,7.20
2018-06-27T08:40:56.114Z,9.17
2018-06-27T08:43:26.597Z,6.33
2018-06-27T08:45:57.090Z,8.73
2018-06-27T08:48:27.232Z,7.63
2018-06-27T08:50:57.276Z,6.33
2018-06-27T08:53:27.467Z,13.23
2018-06-27T08:55:57.519Z,6.37
2018-06-27T08:58:27.511Z,7.80
2018-06-27T09:00:57.445Z,5.43
2018-06-27T09:03:27.319Z,7.17
2018-06-27T09:05:57.791Z,10.47
2018-06-27T09:08:28.220Z,6.67
2018-06-27T09:10:58.679Z,8.50
2018-06-27T09:13:28.954Z,6.93
2018-06-27T09:15:59.228Z,7.23
2018-06-27T09:18:29.601Z,6.93
2018-06-27T09:21:00.249Z,4.70
2018-06-27T09:23:30.312Z,6.70
2018-06-27T09:26:00.460Z,7.47
2018-06-27T09:28:30.364Z,6.27
2018-06-27T09:31:00.422Z,6.60
2018-06-27T09:33:30.662Z,7.60
2018-06-27T09:36:01.265Z,9.67
2018-06-27T09:38:31.310Z,7.37
2018-06-27T09:41:01.395Z,8.70
2018-06-27T09:43:31.395Z,7.37
2018-06-27T09:46:01.617Z,7.53
2018-06-27T09:48:32.110Z,6.00
2018-06-27T09:51:02.220Z,8.43
2018-06-27T09:53:32.172Z,6.47
2018-06-27T09:56:03.217Z,6.70
2018-06-27T09:58:33.268Z,9.77
2018-06-27T10:01:03.505Z,9.03
2018-06-27T10:03:34.818Z,7.83
2018-06-27T10:06:04.867Z,8.17
2018-06-27T10:08:35.029Z,6.17
2018-06-27T10:11:05.115Z,7.03
2018-06-27T10:13:35.066Z,8.47
2018-06-27T10:16:05.131Z,11.10
2018-06-27T10:18:35.237Z,8.70
2018-06-27T10:21:05.676Z,6.27
2018-06-27T10:23:35.996Z,5.27
2018-06-27T10:26:06.433Z,7.53
2018-06-27T10:28:38.034Z,6.57
2018-06-27T10:31:08.296Z,7.10
2018-06-27T10:33:38.468Z,9.10
2018-06-27T10:36:08.640Z,7.07
2018-06-27T10:38:38.608Z,8.07
2018-06-27T10:41:08.877Z,5.87
2018-06-27T10:43:39.448Z,9.07
2018-06-27T10:46:09.489Z,6.20
2018-06-27T10:48:40.036Z,6.50
2018-06-27T10:51:10.081Z,10.43
2018-06-27T10:53:40.022Z,11.63
2018-06-27T10:56:10.008Z,7.87
2018-06-27T10:58:39.945Z,7.20
2018-06-27T11:01:10.190Z,7.70
2018-06-27T11:03:41.101Z,7.40
2018-06-27T11:06:11.301Z,9.33
2018-06-27T11:08:41.465Z,7.63
2018-06-27T11:11:11.402Z,12.57
2018-06-27T11:13:41.513Z,7.83
2018-06-27T11:16:11.428Z,10.73
2018-06-27T11:18:41.308Z,7.17
2018-06-27T11:21:11.517Z,6.43
2018-06-27T11:23:41.893Z,8.00
2018-06-27T11:26:12.170Z,9.67
2018-06-27T11:28:42.444Z,6.80
2018-06-27T11:31:12.708Z,7.57
2018-06-27T11:33:43.317Z,5.97
2018-06-27T11:36:14.822Z,8.20
2018-06-27T11:38:45.108Z,7.50
2018-06-27T11:41:15.092Z,8.10
2018-06-27T11:43:45.127Z,8.93
2018-06-27T11:46:15.253Z,7.90
2018-06-27T11:48:45.809Z,10.07
2018-06-27T11:51:15.797Z,7.40
2018-06-27T11:53:46.089Z,9.80
2018-06-27T11:56:16.041Z,9.77
2018-06-27T11:58:46.279Z,8.80
2018-06-27T12:01:16.249Z,5.60
2018-06-27T12:03:46.410Z,8.33
2018-06-27T12:06:16.972Z,6.80
2018-06-27T12:08:47.750Z,7.20
2018-06-27T12:11:18.261Z,6.47
2018-06-27T12:13:49.300Z,7.60
2018-06-27T12:16:19.843Z,5.97
2018-06-27T12:18:50.007Z,7.83
2018-06-27T12:21:20.124Z,5.53
2018-06-27T12:24:12.912Z,7.10
2018-06-27T12:26:42.852Z,7.50
2018-06-27T12:29:13.175Z,6.23
2018-06-27T12:31:43.378Z,10.77
2018-06-27T12:34:13.380Z,9.50
2018-06-27T12:36:43.308Z,6.80
2018-06-27T12:39:13.620Z,6.90
2018-06-27T12:41:43.523Z,7.23
2018-06-27T12:44:13.421Z,7.00
2018-06-27T12:46:43.336Z,7.97
2018-06-27T12:49:13.438Z,7.90
2018-06-27T12:51:43.384Z,8.60
2018-06-27T12:54:13.361Z,7.67
2018-06-27T12:56:43.372Z,10.67
2018-06-27T12:59:13.317Z,10.07
2018-06-27T13:01:43.257Z,9.07
2018-06-27T13:04:13.696Z,8.27
2018-06-27T13:06:44.032Z,10.23
2018-06-27T13:09:14.398Z,8.87
2018-06-27T13:11:44.340Z,8.50
2018-06-27T13:14:14.790Z,8.33
2018-06-27T13:16:44.764Z,8.43
2018-06-27T13:19:14.718Z,11.67
2018-06-27T13:21:44.750Z,8.23
2018-06-27T13:24:14.960Z,10.60
2018-06-27T13:26:45.209Z,7.27
2018-06-27T13:29:15.187Z,9.87
2018-06-27T13:31:45.261Z,7.37
2018-06-27T13:34:15.156Z,7.80
2018-06-27T13:36:45.149Z,9.50
2018-06-27T13:39:15.182Z,11.03
2018-06-27T13:41:45.396Z,11.13
2018-06-27T13:44:15.877Z,7.20
2018-06-27T13:46:46.008Z,8.40
2018-06-27T13:49:15.963Z,9.60
2018-06-27T13:51:46.088Z,9.07
2018-06-27T13:54:16.482Z,8.33
2018-06-27T13:56:47.392Z,10.60
2018-06-27T13:59:17.510Z,10.90
2018-06-27T14:01:47.702Z,9.07
2018-06-27T14:04:17.588Z,7.63
2018-06-27T14:06:47.852Z,8.17
2018-06-27T14:09:18.144Z,8.00
2018-06-27T14:11:48.752Z,8.47
2018-06-27T14:14:18.822Z,8.60
2018-06-27T14:16:48.728Z,9.27
2018-06-27T14:19:18.933Z,6.10
2018-06-27T14:21:49.024Z,6.50
2018-06-27T14:24:19.452Z,8.53
2018-06-27T14:26:49.524Z,7.87
2018-06-27T14:29:20.247Z,7.70
2018-06-27T14:31:50.654Z,7.67
2018-06-27T14:34:21.261Z,6.63
2018-06-27T14:36:51.440Z,7.40
2018-06-27T14:39:22.291Z,7.47
2018-06-27T14:41:52.307Z,4.60
2018-06-27T14:44:23.474Z,6.30
2018-06-27T14:46:53.545Z,9.13
2018-06-27T14:49:23.847Z,5.63
2018-06-27T14:51:53.772Z,6.57
2018-06-27T14:54:24.160Z,6.47
2018-06-27T14:56:54.183Z,6.03
2018-06-27T14:59:24.428Z,6.40
2018-06-27T15:01:54.818Z,6.57
2018-06-27T15:04:25.596Z,5.60
2018-06-27T15:06:56.130Z,6.23
2018-06-27T15:09:26.462Z,5.80
2018-06-27T15:11:56.933Z,5.90
2018-06-27T15:14:27.021Z,8.93
2018-06-27T15:16:57.345Z,8.47
2018-06-27T15:19:28.337Z,5.13
2018-06-27T15:21:59.374Z,8.83
2018-06-27T15:24:29.976Z,7.03
2018-06-27T15:26:59.957Z,6.43
2018-06-27T15:29:29.977Z,7.03
2018-06-27T15:31:59.973Z,7.87
2018-06-27T15:34:30.375Z,6.70
2018-06-27T15:37:00.514Z,6.63
2018-06-27T15:39:30.608Z,6.37
2018-06-27T15:42:00.629Z,8.87
2018-06-27T15:44:30.614Z,8.93
2018-06-27T15:47:00.936Z,12.10
2018-06-27T15:49:30.955Z,7.57
2018-06-27T15:52:02.072Z,8.90
2018-06-27T15:54:32.073Z,10.43
2018-06-27T15:57:02.419Z,8.67
2018-06-27T15:59:32.553Z,6.80
2018-06-27T16:02:02.322Z,8.47
2018-06-27T16:04:32.840Z,6.03
2018-06-27T16:07:03.293Z,7.83
2018-06-27T16:09:33.661Z,11.17
2018-06-27T16:12:03.644Z,9.17
2018-06-27T16:14:34.284Z,8.10
2018-06-27T16:17:04.304Z,9.00
2018-06-27T16:19:34.275Z,7.47
2018-06-27T16:22:04.184Z,9.07
2018-06-27T16:24:34.388Z,7.37
2018-06-27T16:27:04.585Z,7.37
2018-06-27T16:29:34.894Z,9.13
2018-06-27T16:32:05.028Z,6.67
2018-06-27T16:34:34.952Z,10.77
2018-06-27T16:37:05.601Z,8.33
2018-06-27T16:39:35.680Z,6.63
2018-06-27T16:42:05.653Z,12.43
2018-06-27T16:44:35.689Z,7.57
2018-06-27T16:47:05.753Z,10.13
2018-06-27T16:49:35.756Z,8.30
2018-06-27T16:52:06.876Z,10.70
2018-06-27T16:54:36.871Z,9.07
2018-06-27T16:57:07.161Z,12.13
2018-06-27T16:59:37.129Z,8.33
2018-06-27T17:02:07.727Z,8.50
2018-06-27T17:04:38.221Z,11.57
2018-06-27T17:07:09.732Z,9.30
2018-06-27T17:09:39.760Z,9.27
2018-06-27T17:12:09.893Z,12.40
2018-06-27T17:14:39.948Z,12.13
2018-06-27T17:17:09.860Z,12.07
2018-06-27T17:19:40.127Z,10.80
2018-06-27T17:22:10.123Z,14.23
2018-06-27T17:24:40.721Z,9.60
2018-06-27T17:27:10.825Z,10.07
2018-06-27T17:29:40.922Z,14.87
2018-06-27T17:32:11.434Z,18.10
2018-06-27T17:34:41.506Z,11.80
2018-06-27T17:37:11.802Z,13.33
2018-06-27T17:39:42.476Z,11.90
2018-06-27T17:42:12.958Z,12.17
2018-06-27T17:44:43.034Z,12.13
2018-06-27T17:47:13.396Z,13.43
2018-06-27T17:49:43.830Z,12.63
2018-06-27T17:52:13.840Z,11.93
2018-06-27T17:54:43.972Z,12.13
2018-06-27T17:57:14.089Z,13.53
2018-06-27T17:59:43.977Z,12.00
2018-06-27T18:02:14.575Z,14.90
2018-06-27T18:04:44.592Z,12.80
2018-06-27T18:07:14.685Z,13.50
2018-06-27T18:09:45.082Z,16.50
2018-06-27T18:12:15.433Z,15.57
2018-06-27T18:14:45.681Z,17.50
2018-06-27T18:17:15.692Z,13.83
2018-06-27T18:19:46.387Z,18.20
2018-06-27T18:22:16.296Z,15.53
2018-06-27T18:24:46.412Z,18.33
2018-06-27T18:27:16.611Z,16.17
2018-06-27T18:29:47.040Z,14.37
2018-06-27T18:32:17.008Z,15.80
2018-06-27T18:34:47.196Z,17.83
2018-06-27T18:37:17.643Z,13.70
2018-06-27T18:39:47.782Z,13.37
2018-06-27T18:42:17.771Z,15.63
2018-06-27T18:44:48.302Z,15.00
2018-06-27T18:47:18.690Z,16.00
2018-06-27T18:49:48.730Z,16.03
2018-06-27T18:52:19.953Z,16.20
2018-06-27T18:54:50.454Z,16.10
2018-06-27T18:57:20.654Z,14.33
2018-06-27T18:59:50.902Z,18.30
2018-06-27T19:02:21.300Z,16.70
2018-06-27T19:04:51.476Z,17.43
2018-06-27T19:07:22.014Z,17.57
2018-06-27T19:09:51.983Z,17.23
2018-06-27T19:12:22.076Z,16.70
2018-06-27T19:14:52.712Z,15.27
2018-06-27T19:17:22.999Z,14.23
2018-06-27T19:19:53.110Z,14.07
2018-06-27T19:22:23.715Z,15.20
2018-06-27T19:24:54.145Z,18.77
2018-06-27T19:27:24.083Z,16.47
2018-06-27T19:29:54.184Z,18.00
2018-06-27T19:32:24.577Z,15.03
2018-06-27T19:34:54.762Z,16.30
2018-06-27T19:37:25.146Z,14.53
2018-06-27T19:39:55.382Z,14.50
2018-06-27T19:42:25.517Z,13.43
2018-06-27T19:44:55.546Z,11.43
2018-06-27T19:47:25.524Z,12.00
2018-06-27T19:49:55.679Z,15.17
2018-06-27T19:52:25.710Z,15.97
2018-06-27T19:54:55.658Z,15.10
2018-06-27T19:57:26.284Z,12.07
2018-06-27T19:59:58.261Z,22.50
2018-06-27T20:02:28.423Z,20.83
2018-06-27T20:04:58.512Z,19.07
2018-06-27T20:07:29.473Z,22.47
2018-06-27T20:09:59.624Z,20.53
2018-06-27T20:12:30.206Z,24.57
2018-06-27T20:15:00.286Z,27.50
2018-06-27T20:17:30.624Z,30.93
2018-06-27T20:20:00.692Z,29.43
2018-06-27T20:22:30.816Z,27.57
2018-06-27T20:25:01.052Z,20.87
2018-06-27T20:27:31.254Z,20.40
2018-06-27T20:30:01.438Z,21.57
2018-06-27T20:32:31.658Z,25.43
2018-06-27T20:35:01.865Z,22.47
2018-06-27T20:37:32.728Z,21.23
2018-06-27T20:40:03.046Z,22.77
2018-06-27T20:42:33.308Z,20.40
2018-06-27T20:45:03.348Z,25.83
2018-06-27T20:47:33.564Z,34.70
2018-06-27T20:50:03.708Z,27.33
2018-06-27T20:52:33.870Z,25.40
2018-06-27T20:55:04.180Z,23.00
2018-06-27T20:57:34.658Z,19.50
2018-06-27T21:00:04.664Z,14.87
2018-06-27T21:02:34.716Z,10.30
2018-06-27T21:05:05.019Z,16.17
2018-06-27T21:07:35.088Z,12.07
2018-06-27T21:10:05.471Z,11.87
2018-06-27T21:12:35.487Z,12.33
2018-06-27T21:15:05.474Z,15.47
2018-06-27T21:17:35.533Z,15.47
2018-06-27T21:20:05.830Z,15.40
2018-06-27T21:22:36.262Z,15.70
2018-06-27T21:25:06.239Z,21.23
2018-06-27T21:27:36.472Z,19.80
2018-06-27T21:30:07.547Z,17.03
2018-06-27T21:32:37.483Z,19.47
2018-06-27T21:35:07.516Z,20.30
2018-06-27T21:37:37.790Z,18.63
2018-06-27T21:40:08.242Z,20.60
2018-06-27T21:42:38.206Z,16.80
2018-06-27T21:45:08.661Z,24.33
2018-06-27T21:47:40.249Z,20.43
2018-06-27T21:50:11.756Z,27.87
2018-06-27T21:52:41.759Z,26.03
2018-06-27T21:55:11.819Z,25.03
2018-06-27T21:57:42.064Z,19.27
2018-06-27T22:00:12.630Z,20.57
2018-06-27T22:02:43.417Z,22.17
2018-06-27T22:05:13.340Z,25.03
2018-06-27T22:07:43.761Z,25.63
2018-06-27T22:10:13.877Z,23.87
2018-06-27T22:12:44.050Z,23.30
2018-06-27T22:15:14.340Z,30.40
2018-06-27T22:17:44.759Z,20.70
2018-06-27T22:20:15.007Z,19.80
2018-06-27T22:22:45.189Z,19.30
2018-06-27T22:25:15.280Z,17.37
2018-06-27T22:27:45.444Z,32.63
2018-06-27T22:30:15.716Z,22.43
2018-06-27T22:32:46.077Z,24.53
2018-06-27T22:35:16.462Z,23.27
2018-06-27T22:37:46.705Z,22.37
2018-06-27T22:40:16.815Z,24.60
2018-06-27T22:42:47.555Z,26.23
2018-06-27T22:45:17.848Z,24.80
2018-06-27T22:47:47.901Z,18.47
2018-06-27T22:50:18.275Z,22.80
2018-06-27T22:52:48.319Z,23.87
2018-06-27T22:55:18.704Z,18.17
2018-06-27T22:57:49.056Z,14.40
2018-06-27T23:00:22.100Z,16.30
2018-06-27T23:02:51.977Z,14.63
2018-06-27T23:05:22.582Z,13.47
2018-06-27T23:07:52.778Z,12.30
2018-06-27T23:10:22.886Z,12.77
2018-06-27T23:12:52.884Z,7.93
2018-06-27T23:15:22.936Z,8.90
2018-06-27T23:17:52.951Z,9.93
2018-06-27T23:20:23.262Z,7.47
2018-06-27T23:22:53.418Z,9.37
2018-06-27T23:25:23.490Z,7.03
2018-06-27T23:27:53.517Z,7.37
2018-06-27T23:30:23.685Z,9.50
2018-06-27T23:32:53.790Z,9.87
2018-06-27T23:35:23.853Z,9.93
2018-06-27T23:37:54.401Z,6.90
2018-06-27T23:40:24.440Z,10.03
2018-06-27T23:42:54.582Z,7.53
2018-06-27T23:45:24.820Z,8.63
2018-06-27T23:47:54.934Z,7.80
2018-06-27T23:50:24.997Z,6.47
2018-06-27T23:52:55.033Z,7.47
2018-06-27T23:55:25.211Z,6.27
2018-06-27T23:57:55.300Z,6.67
